Time;durP1;ratioP1;P1;durP2;ratioP2;P2;SDS_P1;SDS_P2;PMS_P1;PMS_P2;Temp;Humidity;BMP_temperature;BMP_pressure;BME280_temperature;BME280_humidity;BME280_pressure;Samples;Min_cycle;Max_cycle;Signal;HPM_P1;HPM_P2
2021/03/19 00:01:08;;;;;;;5.25;4.10;;;1.80;99.90;;;;;;5002247;28;20230;-69
2021/03/19 00:03:35;;;;;;;4.55;3.97;;;1.80;99.90;;;;;;5002471;28;20580;-68
2021/03/19 00:06:02;;;;;;;5.47;4.65;;;1.80;99.90;;;;;;5002753;28;20236;-69
2021/03/19 00:08:28;;;;;;;5.93;5.10;;;1.80;99.90;;;;;;5002463;28;20205;-68
2021/03/19 00:10:54;;;;;;;5.82;4.85;;;1.70;99.90;;;;;;4982772;28;20247;-69
2021/03/19 00:13:22;;;;;;;5.75;4.50;;;1.70;99.90;;;;;;4982977;28;20293;-68
2021/03/19 00:15:49;;;;;;;6.28;5.43;;;1.70;99.90;;;;;;4983166;28;20214;-69
2021/03/19 00:18:15;;;;;;;5.93;4.40;;;1.70;99.90;;;;;;4982670;28;20211;-69
2021/03/19 00:20:44;;;;;;;8.32;5.72;;;1.70;99.90;;;;;;4981358;28;20235;-69
2021/03/19 00:23:11;;;;;;;5.68;5.18;;;1.70;99.90;;;;;;5001156;28;20206;-68
2021/03/19 00:25:38;;;;;;;7.25;5.00;;;1.70;99.90;;;;;;5002877;28;20775;-69
2021/03/19 00:28:06;;;;;;;7.22;4.70;;;1.70;99.90;;;;;;5004096;28;20744;-69
2021/03/19 00:30:34;;;;;;;7.13;5.25;;;1.60;99.90;;;;;;5003491;28;20206;-69
2021/03/19 00:33:01;;;;;;;6.13;5.15;;;1.70;99.90;;;;;;5004098;28;20390;-68
2021/03/19 00:35:28;;;;;;;5.47;4.47;;;1.60;99.90;;;;;;5004127;28;20517;-68
2021/03/19 00:37:54;;;;;;;5.32;4.82;;;1.50;99.90;;;;;;5004080;28;20203;-69
2021/03/19 00:40:21;;;;;;;6.63;5.30;;;1.50;99.90;;;;;;5003226;28;20225;-69
2021/03/19 00:42:47;;;;;;;5.35;4.82;;;1.50;99.90;;;;;;5003465;28;20309;-69
2021/03/19 00:45:16;;;;;;;6.85;4.80;;;1.40;99.90;;;;;;5003383;28;20259;-69
2021/03/19 00:47:43;;;;;;;6.43;5.35;;;1.40;99.90;;;;;;5004500;28;20614;-69
2021/03/19 00:50:11;;;;;;;6.28;4.90;;;1.50;99.90;;;;;;5003427;28;20201;-68
2021/03/19 00:52:38;;;;;;;6.78;5.10;;;1.50;99.90;;;;;;5004032;28;20356;-69
2021/03/19 00:55:06;;;;;;;6.68;5.30;;;1.40;99.90;;;;;;5003454;28;20206;-68
2021/03/19 00:57:33;;;;;;;4.60;4.20;;;1.40;99.90;;;;;;5003228;28;20206;-69
2021/03/19 01:00:00;;;;;;;6.72;4.70;;;1.40;99.90;;;;;;5004449;28;20254;-69
2021/03/19 01:02:26;;;;;;;6.57;5.00;;;1.30;99.90;;;;;;5006732;28;20602;-69
2021/03/19 01:04:54;;;;;;;5.20;4.70;;;1.30;99.90;;;;;;5007942;28;20206;-68
2021/03/19 01:07:21;;;;;;;6.13;5.47;;;1.30;99.90;;;;;;5007445;28;20206;-68
2021/03/19 01:09:47;;;;;;;5.78;4.97;;;1.30;99.90;;;;;;5006955;28;20320;-68
2021/03/19 01:12:13;;;;;;;5.60;4.55;;;1.20;99.90;;;;;;5009627;28;20257;-68
2021/03/19 01:14:40;;;;;;;5.50;5.00;;;1.20;99.90;;;;;;5009610;28;20202;-68
2021/03/19 01:17:06;;;;;;;8.00;5.20;;;1.10;99.90;;;;;;5012672;28;20582;-68
2021/03/19 01:19:33;;;;;;;6.50;5.60;;;1.10;99.90;;;;;;5011424;28;20206;-69
2021/03/19 01:22:00;;;;;;;5.53;4.95;;;1.00;99.90;;;;;;5012356;28;20778;-69
2021/03/19 01:24:26;;;;;;;6.60;5.82;;;1.00;99.90;;;;;;5012150;28;20206;-68
2021/03/19 01:26:52;;;;;;;6.38;5.38;;;1.10;99.90;;;;;;5012430;28;20198;-68
2021/03/19 01:29:19;;;;;;;7.63;5.47;;;1.00;99.90;;;;;;5011641;28;20217;-68
2021/03/19 01:31:45;;;;;;;6.20;5.38;;;1.00;99.90;;;;;;5012115;28;20222;-69
2021/03/19 01:34:12;;;;;;;8.85;5.90;;;0.90;99.90;;;;;;5012032;28;20198;-68
2021/03/19 01:36:39;;;;;;;5.85;5.10;;;0.80;99.90;;;;;;5012117;28;20303;-68
2021/03/19 01:39:06;;;;;;;7.30;5.43;;;0.80;99.90;;;;;;5011675;28;20572;-69
2021/03/19 01:41:32;;;;;;;5.93;4.95;;;0.80;99.90;;;;;;5087900;22;20233;-72
2021/03/19 01:43:59;;;;;;;5.65;5.10;;;0.80;99.90;;;;;;5051061;28;20201;-72
2021/03/19 01:47:03;;;;;;;7.18;5.63;;;0.80;99.90;;;;;;5050707;28;20656;-71
2021/03/19 01:50:07;;;;;;;5.43;4.90;;;0.80;99.90;;;;;;5050506;28;20242;-72
2021/03/19 01:53:10;;;;;;;5.65;4.90;;;0.60;99.90;;;;;;5050781;28;20228;-72
2021/03/19 01:56:13;;;;;;;7.15;5.20;;;0.60;99.90;;;;;;5050780;28;20554;-71
2021/03/19 01:59:17;;;;;;;5.97;5.38;;;0.70;99.90;;;;;;5050309;28;20207;-72
2021/03/19 02:02:21;;;;;;;6.43;5.07;;;0.80;99.90;;;;;;5050362;28;20609;-71
2021/03/19 02:05:32;;;;;;;11.38;6.15;;;0.80;99.90;;;;;;5050645;28;20723;-72
2021/03/19 02:08:36;;;;;;;7.63;5.50;;;0.80;99.90;;;;;;5022821;28;20201;-72
2021/03/19 02:11:40;;;;;;;5.95;4.65;;;0.70;99.90;;;;;;5050666;28;20603;-72
2021/03/19 02:14:43;;;;;;;9.35;6.68;;;0.80;99.90;;;;;;5050431;28;20205;-71
2021/03/19 02:17:46;;;;;;;6.55;5.85;;;0.50;99.90;;;;;;5050779;28;20207;-71
2021/03/19 02:20:50;;;;;;;8.60;6.05;;;0.40;99.90;;;;;;5050007;28;20225;-72
2021/03/19 02:23:54;;;;;;;6.53;5.43;;;0.40;99.90;;;;;;5050800;28;20201;-71
2021/03/19 02:26:57;;;;;;;6.88;5.47;;;0.40;99.90;;;;;;5050524;28;20212;-71
2021/03/19 02:30:15;;;;;;;10.05;6.60;;;0.40;99.90;;;;;;5050172;28;20227;-72
2021/03/19 02:32:43;;;;;;;8.13;5.60;;;0.20;99.90;;;;;;4988255;28;20360;-71
2021/03/19 02:35:12;;;;;;;8.32;5.85;;;0.30;99.90;;;;;;4988469;28;20207;-70
2021/03/19 02:37:39;;;;;;;8.10;6.40;;;0.20;99.90;;;;;;5024994;28;20254;-72
2021/03/19 02:40:09;;;;;;;9.57;6.97;;;0.10;99.90;;;;;;5049710;28;20643;-71
2021/03/19 02:42:35;;;;;;;7.80;6.72;;;0.00;99.90;;;;;;5049514;28;20237;-71
2021/03/19 02:45:01;;;;;;;6.80;6.18;;;0.00;99.90;;;;;;5050062;28;20260;-71
2021/03/19 02:47:28;;;;;;;7.93;7.03;;;0.00;99.90;;;;;;5049705;28;20205;-72
2021/03/19 02:49:55;;;;;;;7.40;6.55;;;0.00;99.90;;;;;;5049280;28;20263;-72
2021/03/19 02:52:23;;;;;;;8.65;6.47;;;0.00;99.90;;;;;;5049741;28;20777;-72
2021/03/19 02:54:50;;;;;;;10.18;7.20;;;0.00;99.90;;;;;;5049634;28;20216;-71
2021/03/19 02:57:17;;;;;;;7.28;5.95;;;0.10;99.90;;;;;;5049771;28;20696;-72
2021/03/19 02:59:44;;;;;;;8.88;6.70;;;0.20;99.90;;;;;;5048761;28;20220;-71
2021/03/19 03:02:10;;;;;;;10.98;6.65;;;0.20;99.90;;;;;;5049610;28;20248;-71
2021/03/19 03:04:37;;;;;;;10.52;6.50;;;0.10;99.90;;;;;;5049268;28;20201;-71
2021/03/19 03:07:04;;;;;;;7.32;6.60;;;0.10;99.90;;;;;;5049593;28;20686;-71
2021/03/19 03:09:33;;;;;;;7.80;6.40;;;0.10;99.90;;;;;;5049081;28;20208;-72
2021/03/19 03:11:59;;;;;;;10.43;6.90;;;0.10;99.90;;;;;;5049549;28;20221;-72
2021/03/19 03:14:28;;;;;;;7.15;6.15;;;0.10;99.90;;;;;;5049521;28;20205;-72
2021/03/19 03:16:57;;;;;;;10.55;6.40;;;0.10;99.90;;;;;;5049061;28;20209;-72
2021/03/19 03:19:24;;;;;;;6.97;6.28;;;0.20;99.90;;;;;;5049326;28;20201;-71
2021/03/19 03:21:51;;;;;;;8.80;7.32;;;0.20;99.90;;;;;;5049104;28;20253;-72
2021/03/19 03:24:22;;;;;;;9.52;6.88;;;0.20;99.90;;;;;;5049150;28;20292;-71
2021/03/19 03:26:49;;;;;;;11.15;7.75;;;0.20;99.90;;;;;;5049084;28;20881;-72
2021/03/19 03:29:15;;;;;;;8.15;7.25;;;0.20;99.90;;;;;;5048627;28;20664;-71
2021/03/19 03:31:42;;;;;;;8.20;6.68;;;0.30;99.90;;;;;;5049118;28;20220;-71
2021/03/19 03:34:10;;;;;;;9.25;7.15;;;0.30;99.90;;;;;;5049253;28;20200;-71
2021/03/19 03:36:41;;;;;;;9.27;7.45;;;0.30;99.90;;;;;;5048967;28;20243;-72
2021/03/19 03:39:12;;;;;;;8.55;6.90;;;0.30;99.90;;;;;;5048426;28;20208;-72
2021/03/19 03:41:41;;;;;;;8.75;6.88;;;0.20;99.90;;;;;;5048699;28;20259;-72
2021/03/19 03:44:10;;;;;;;10.15;7.15;;;0.30;99.90;;;;;;5049009;28;20197;-72
2021/03/19 03:46:36;;;;;;;9.82;7.38;;;0.30;99.90;;;;;;5048845;28;20205;-72
2021/03/19 03:49:03;;;;;;;7.70;6.90;;;0.30;99.90;;;;;;5048317;28;20201;-71
2021/03/19 03:51:29;;;;;;;9.30;7.10;;;0.30;99.90;;;;;;5048603;28;20217;-72
2021/03/19 03:53:57;;;;;;;8.40;7.57;;;0.30;99.90;;;;;;5048664;28;20676;-71
2021/03/19 03:56:24;;;;;;;10.93;7.13;;;0.30;99.90;;;;;;5048544;28;20197;-71
2021/03/19 03:58:52;;;;;;;9.43;7.20;;;0.30;99.90;;;;;;5048092;28;20208;-72
2021/03/19 04:01:18;;;;;;;8.20;7.40;;;0.40;99.90;;;;;;5048295;28;20286;-71
2021/03/19 04:03:45;;;;;;;9.30;7.40;;;0.40;99.90;;;;;;5048471;28;20232;-71
2021/03/19 04:06:12;;;;;;;9.40;7.85;;;0.40;99.90;;;;;;5048906;28;20279;-71
2021/03/19 04:08:38;;;;;;;11.82;8.32;;;0.40;99.90;;;;;;5047790;28;20534;-72
2021/03/19 04:11:08;;;;;;;9.50;7.40;;;0.40;99.90;;;;;;5048504;28;20213;-71
2021/03/19 04:13:34;;;;;;;8.60;7.22;;;0.40;99.90;;;;;;5048427;28;20208;-71
2021/03/19 04:16:02;;;;;;;8.98;7.88;;;0.40;99.90;;;;;;5048644;28;20301;-72
2021/03/19 04:18:29;;;;;;;10.70;9.10;;;0.50;99.90;;;;;;5048439;28;20197;-71
2021/03/19 04:20:58;;;;;;;10.65;8.18;;;0.50;99.90;;;;;;5047826;28;20225;-70
2021/03/19 04:23:25;;;;;;;10.13;7.72;;;0.50;99.90;;;;;;5048181;28;20680;-71
2021/03/19 04:25:52;;;;;;;8.55;7.57;;;0.50;99.90;;;;;;5048491;28;20282;-71
2021/03/19 04:28:23;;;;;;;11.05;7.47;;;0.60;99.90;;;;;;5048394;28;20558;-71
2021/03/19 04:30:50;;;;;;;11.52;7.93;;;0.70;99.90;;;;;;5047932;28;20490;-70
2021/03/19 04:33:20;;;;;;;8.45;7.57;;;0.70;99.90;;;;;;5048356;28;20619;-71
2021/03/19 04:35:48;;;;;;;9.10;8.07;;;0.60;99.90;;;;;;5046659;28;20220;-73
2021/03/19 04:38:17;;;;;;;7.68;6.90;;;0.60;99.90;;;;;;5032633;28;20212;-71
2021/03/19 04:40:45;;;;;;;12.38;8.57;;;0.70;99.90;;;;;;5032865;28;20351;-71
2021/03/19 04:43:13;;;;;;;15.88;9.00;;;0.80;99.90;;;;;;5032409;28;20213;-73
2021/03/19 04:45:41;;;;;;;8.75;7.82;;;0.80;99.90;;;;;;5031868;28;20210;-72
2021/03/19 04:48:08;;;;;;;8.52;7.07;;;0.80;99.90;;;;;;5032514;28;20206;-73
2021/03/19 04:50:35;;;;;;;10.70;8.70;;;0.90;99.90;;;;;;5031827;28;20247;-72
2021/03/19 04:53:02;;;;;;;10.63;7.10;;;0.80;99.90;;;;;;5032308;28;20206;-72
2021/03/19 04:55:29;;;;;;;9.30;8.27;;;0.80;99.90;;;;;;5032297;28;20216;-71
2021/03/19 04:57:55;;;;;;;8.90;8.00;;;0.80;99.90;;;;;;5032120;28;20205;-71
2021/03/19 05:00:23;;;;;;;8.80;7.85;;;0.80;99.90;;;;;;5031126;28;20224;-71
2021/03/19 05:02:51;;;;;;;9.27;8.27;;;0.80;99.90;;;;;;5031914;28;20300;-72
2021/03/19 05:05:20;;;;;;;9.68;8.48;;;0.80;99.90;;;;;;5031679;28;20251;-70
2021/03/19 05:07:47;;;;;;;10.48;8.75;;;0.70;99.90;;;;;;5030758;28;20907;-69
2021/03/19 05:10:14;;;;;;;10.95;9.02;;;0.60;99.90;;;;;;5031262;28;20206;-70
2021/03/19 05:12:40;;;;;;;10.20;8.70;;;0.60;99.90;;;;;;5031560;28;20252;-71
2021/03/19 05:15:08;;;;;;;10.95;9.13;;;0.60;99.90;;;;;;5032174;28;20202;-70
2021/03/19 05:17:35;;;;;;;9.77;8.02;;;0.50;99.90;;;;;;5029020;28;20213;-70
2021/03/19 05:20:02;;;;;;;10.93;8.82;;;0.60;99.90;;;;;;5027987;28;20202;-72
2021/03/19 05:22:28;;;;;;;13.40;9.05;;;0.70;99.90;;;;;;5030707;28;20252;-72
2021/03/19 05:24:55;;;;;;;11.95;8.73;;;0.70;99.90;;;;;;5031567;28;20263;-72
2021/03/19 05:27:21;;;;;;;11.73;10.35;;;0.70;99.90;;;;;;5029621;28;20948;-72
2021/03/19 05:29:48;;;;;;;10.70;8.93;;;0.60;99.90;;;;;;5030542;28;20695;-71
2021/03/19 05:32:14;;;;;;;10.85;9.63;;;0.70;99.90;;;;;;5013217;28;20698;-73
2021/03/19 05:34:40;;;;;;;11.40;8.75;;;0.70;99.90;;;;;;5011294;28;20539;-70
2021/03/19 05:37:06;;;;;;;11.82;8.35;;;0.70;99.90;;;;;;5011509;28;20222;-73
2021/03/19 05:39:32;;;;;;;14.38;8.20;;;0.70;99.90;;;;;;5010589;28;20207;-71
2021/03/19 05:42:00;;;;;;;10.18;8.85;;;0.80;99.90;;;;;;5010994;28;20285;-71
2021/03/19 05:44:27;;;;;;;10.00;8.43;;;0.90;99.90;;;;;;5011206;28;20685;-72
2021/03/19 05:46:55;;;;;;;11.27;9.25;;;1.00;99.90;;;;;;5009398;28;20209;-71
2021/03/19 05:49:24;;;;;;;9.98;8.88;;;1.00;99.90;;;;;;5010669;28;20586;-71
2021/03/19 05:51:53;;;;;;;10.93;9.07;;;1.00;99.90;;;;;;5010585;28;20280;-72
2021/03/19 05:54:23;;;;;;;10.85;8.75;;;1.00;99.90;;;;;;5011159;28;20685;-71
2021/03/19 05:57:01;;;;;;;9.90;8.75;;;1.00;99.90;;;;;;5010668;28;20665;-71
2021/03/19 05:59:28;;;;;;;9.40;7.78;;;1.10;99.90;;;;;;5010538;28;20218;-72
2021/03/19 06:01:55;;;;;;;9.68;7.80;;;1.10;99.90;;;;;;5010738;28;20234;-72
2021/03/19 06:04:25;;;;;;;11.65;8.40;;;1.20;99.90;;;;;;5010734;28;20256;-71
2021/03/19 06:06:54;;;;;;;10.07;8.45;;;1.20;99.90;;;;;;5010638;28;20206;-72
2021/03/19 06:09:27;;;;;;;9.85;7.45;;;1.20;99.90;;;;;;5010113;28;20202;-71
2021/03/19 06:11:56;;;;;;;8.90;7.97;;;1.20;99.90;;;;;;5010350;28;20233;-70
2021/03/19 06:14:24;;;;;;;11.32;9.50;;;1.30;99.90;;;;;;5010703;28;20206;-72
2021/03/19 06:16:56;;;;;;;11.10;9.02;;;1.30;99.90;;;;;;5010623;28;20206;-72
2021/03/19 06:19:33;;;;;;;11.68;8.18;;;1.30;99.90;;;;;;5010224;28;20682;-71
2021/03/19 06:22:06;;;;;;;10.05;8.00;;;1.30;99.90;;;;;;5010250;28;20245;-72
2021/03/19 06:24:34;;;;;;;10.20;8.63;;;1.20;99.90;;;;;;5011026;28;20346;-71
2021/03/19 06:27:20;;;;;;;8.95;7.72;;;1.30;99.90;;;;;;5024242;28;20210;-72
2021/03/19 06:29:50;;;;;;;9.00;7.78;;;1.30;99.90;;;;;;5020542;28;20677;-71
2021/03/19 06:32:27;;;;;;;10.20;8.25;;;1.40;99.90;;;;;;5030400;28;20595;-71
2021/03/19 06:35:00;;;;;;;10.40;8.32;;;1.40;99.90;;;;;;5030404;28;20205;-72
2021/03/19 06:37:31;;;;;;;10.27;9.00;;;1.30;99.90;;;;;;5030198;28;20201;-71
2021/03/19 06:39:58;;;;;;;10.98;9.15;;;1.30;99.90;;;;;;5029781;28;20320;-72
2021/03/19 06:42:40;;;;;;;11.10;8.63;;;1.50;99.90;;;;;;5030002;28;20230;-72
2021/03/19 06:45:18;;;;;;;10.02;8.90;;;1.50;99.90;;;;;;5030027;28;20206;-72
2021/03/19 06:47:48;;;;;;;10.82;8.98;;;1.50;99.90;;;;;;5029803;28;20218;-72
2021/03/19 06:50:35;;;;;;;11.80;10.25;;;1.50;99.90;;;;;;5029257;28;20203;-72
2021/03/19 06:53:18;;;;;;;12.23;8.90;;;1.50;99.90;;;;;;5030170;28;20198;-72
2021/03/19 06:55:47;;;;;;;12.00;9.05;;;1.50;99.90;;;;;;5029418;28;20209;-72
2021/03/19 06:58:14;;;;;;;11.57;9.95;;;1.60;99.90;;;;;;5029670;28;20609;-72
2021/03/19 07:00:44;;;;;;;11.98;10.35;;;1.60;99.90;;;;;;5028951;28;20226;-72
2021/03/19 07:03:24;;;;;;;11.85;9.45;;;1.60;99.90;;;;;;5029722;28;20202;-72
2021/03/19 07:06:10;;;;;;;11.25;9.68;;;1.70;99.90;;;;;;5029861;28;20236;-72
2021/03/19 07:08:42;;;;;;;13.20;10.05;;;1.70;99.90;;;;;;5029124;28;20661;-71
2021/03/19 07:11:40;;;;;;;11.85;9.80;;;1.70;99.90;;;;;;5029617;28;20735;-72
2021/03/19 07:14:48;;;;;;;12.90;9.18;;;1.90;99.90;;;;;;5029408;28;20279;-72
2021/03/19 07:17:30;;;;;;;11.60;10.23;;;2.00;99.90;;;;;;4999980;28;20247;-72
2021/03/19 07:20:09;;;;;;;14.73;10.65;;;2.10;99.90;;;;;;5029045;28;20221;-73
2021/03/19 07:22:55;;;;;;;12.27;9.73;;;2.10;99.90;;;;;;5029482;28;20304;-73
2021/03/19 07:25:49;;;;;;;11.63;9.20;;;2.00;99.90;;;;;;5029563;28;20691;-73
2021/03/19 07:28:33;;;;;;;12.45;11.13;;;2.10;99.90;;;;;;5029729;28;20611;-73
2021/03/19 07:31:17;;;;;;;11.15;9.80;;;2.10;99.90;;;;;;5029366;28;20280;-73
2021/03/19 07:34:08;;;;;;;16.08;12.35;;;2.10;99.90;;;;;;5029386;28;20254;-73
2021/03/19 07:36:49;;;;;;;12.80;10.82;;;2.20;99.90;;;;;;5029501;28;20213;-72
2021/03/19 07:39:40;;;;;;;12.50;10.68;;;2.20;99.90;;;;;;5028711;28;20229;-73
2021/03/19 07:44:43;;;;;;;15.82;11.88;;;2.30;99.90;;;;;;5007488;28;20356;-71
2021/03/19 07:47:41;;;;;;;12.85;10.80;;;2.40;99.90;;;;;;5009045;28;20554;-72
2021/03/19 07:50:24;;;;;;;13.38;10.82;;;2.40;99.90;;;;;;4979727;28;20201;-72
2021/03/19 07:53:12;;;;;;;14.30;11.75;;;2.40;99.90;;;;;;4984231;28;20622;-72
2021/03/19 07:55:53;;;;;;;12.75;11.25;;;2.50;99.90;;;;;;4978955;28;20218;-72
2021/03/19 07:58:33;;;;;;;12.90;10.65;;;2.50;99.90;;;;;;4976512;28;20210;-72
2021/03/19 08:01:09;;;;;;;14.13;9.95;;;2.60;99.90;;;;;;4985986;28;20234;-72
2021/03/19 08:03:37;;;;;;;11.63;9.95;;;2.70;99.90;;;;;;4988591;28;20199;-72
2021/03/19 08:06:11;;;;;;;13.93;10.30;;;2.70;99.90;;;;;;4988607;28;20564;-72
2021/03/19 08:08:46;;;;;;;14.13;11.05;;;2.70;99.90;;;;;;4988486;28;20213;-72
2021/03/19 08:11:19;;;;;;;10.85;9.70;;;2.70;99.90;;;;;;4988151;28;20218;-71
2021/03/19 08:14:13;;;;;;;15.02;10.77;;;2.80;99.90;;;;;;4988970;28;20207;-72
2021/03/19 08:16:43;;;;;;;18.45;14.43;;;3.00;99.90;;;;;;4988403;28;20214;-71
2021/03/19 08:19:24;;;;;;;13.95;11.40;;;3.20;99.90;;;;;;4988217;28;20695;-72
2021/03/19 08:21:58;;;;;;;10.70;8.50;;;3.40;99.90;;;;;;4969877;28;20244;-72
2021/03/19 08:24:35;;;;;;;8.32;7.20;;;3.70;99.90;;;;;;4968574;28;20737;-71
2021/03/19 08:27:12;;;;;;;7.72;6.53;;;4.00;99.90;;;;;;4969673;28;20208;-71
2021/03/19 08:29:46;;;;;;;6.47;5.82;;;4.10;99.90;;;;;;4972228;28;20670;-71
2021/03/19 08:32:23;;;;;;;8.90;6.80;;;4.10;99.90;;;;;;4988483;28;20227;-71
2021/03/19 08:35:01;;;;;;;7.32;6.47;;;4.00;99.90;;;;;;4988670;28;20218;-71
2021/03/19 08:37:37;;;;;;;7.20;6.43;;;4.00;99.90;;;;;;4988142;28;20238;-71
2021/03/19 08:40:09;;;;;;;7.18;6.43;;;4.00;99.90;;;;;;4986838;28;20207;-71
2021/03/19 08:42:38;;;;;;;8.52;7.15;;;4.10;99.90;;;;;;4988500;28;20231;-71
2021/03/19 08:45:07;;;;;;;7.95;7.15;;;4.10;99.90;;;;;;4988686;28;20207;-71
2021/03/19 08:47:36;;;;;;;7.75;6.95;;;4.00;99.90;;;;;;4988076;28;20722;-71
2021/03/19 08:50:17;;;;;;;8.93;7.40;;;3.90;99.90;;;;;;4987488;28;20203;-71
2021/03/19 08:53:04;;;;;;;8.85;7.90;;;4.00;99.90;;;;;;4988351;28;20227;-71
2021/03/19 08:55:33;;;;;;;11.52;8.23;;;3.90;99.90;;;;;;4988020;28;20203;-71
2021/03/19 08:58:36;;;;;;;12.98;9.55;;;3.70;99.90;;;;;;4988676;28;20219;-71
2021/03/19 09:01:06;;;;;;;10.88;8.27;;;3.60;99.90;;;;;;4988170;28;20231;-71
2021/03/19 09:03:58;;;;;;;13.50;8.70;;;3.60;99.90;;;;;;4987923;28;20236;-71
2021/03/19 09:06:27;;;;;;;9.43;8.07;;;3.60;99.90;;;;;;4987558;28;20591;-71
2021/03/19 09:09:20;;;;;;;10.45;8.70;;;3.60;99.90;;;;;;4987901;28;20203;-71
2021/03/19 09:12:10;;;;;;;10.57;7.95;;;3.60;99.90;;;;;;4969144;28;20220;-71
2021/03/19 09:15:08;;;;;;;13.00;9.77;;;3.50;99.90;;;;;;4968627;28;20258;-71
2021/03/19 09:17:58;;;;;;;11.40;8.07;;;3.40;99.90;;;;;;4957170;28;20211;-71
2021/03/19 09:20:45;;;;;;;8.70;7.40;;;3.30;99.90;;;;;;4987543;28;20207;-71
2021/03/19 09:23:31;;;;;;;8.90;7.50;;;3.30;99.90;;;;;;4991369;28;20199;-71
2021/03/19 09:26:18;;;;;;;9.80;7.43;;;3.20;99.90;;;;;;4991843;28;20210;-71
2021/03/19 09:29:00;;;;;;;9.15;7.90;;;3.30;99.90;;;;;;4991258;28;20207;-71
2021/03/19 09:31:40;;;;;;;12.98;9.65;;;3.30;99.90;;;;;;4990665;28;20219;-71
2021/03/19 09:34:39;;;;;;;12.75;9.00;;;3.10;99.90;;;;;;4991711;28;20206;-71
2021/03/19 09:37:28;;;;;;;11.27;9.15;;;3.10;99.90;;;;;;4990908;28;20251;-71
2021/03/19 09:40:34;;;;;;;13.23;9.65;;;3.20;99.90;;;;;;4990505;28;20211;-71
2021/03/19 09:43:02;;;;;;;14.35;9.90;;;3.10;99.90;;;;;;4990211;28;20658;-72
2021/03/19 09:45:33;;;;;;;13.00;11.43;;;3.30;99.90;;;;;;4990811;28;20211;-71
2021/03/19 09:48:28;;;;;;;17.23;15.60;;;3.50;99.90;;;;;;4991606;28;20298;-71
2021/03/19 09:51:08;;;;;;;14.05;10.95;;;3.70;99.90;;;;;;4990828;28;20233;-71
2021/03/19 09:53:38;;;;;;;11.90;9.60;;;3.80;99.90;;;;;;4990468;28;20207;-71
2021/03/19 09:56:20;;;;;;;9.60;7.78;;;3.80;99.90;;;;;;4990992;28;20634;-71
2021/03/19 09:58:49;;;;;;;10.77;8.60;;;3.70;99.90;;;;;;4990675;28;20230;-71
2021/03/19 10:01:25;;;;;;;9.65;8.65;;;3.60;99.90;;;;;;4990071;28;20668;-71
2021/03/19 10:03:54;;;;;;;9.20;7.75;;;3.50;99.90;;;;;;4991192;28;20318;-71
2021/03/19 10:06:27;;;;;;;10.60;8.35;;;3.40;99.90;;;;;;4990151;28;20878;-71
2021/03/19 10:09:13;;;;;;;14.88;9.70;;;3.30;99.90;;;;;;4990206;28;20530;-71
2021/03/19 10:12:00;;;;;;;21.63;12.27;;;3.10;99.90;;;;;;4992801;28;20219;-71
2021/03/19 10:14:32;;;;;;;24.75;13.25;;;3.10;99.90;;;;;;5008995;28;20666;-71
2021/03/19 10:17:16;;;;;;;13.98;10.10;;;3.10;99.90;;;;;;5009192;28;20199;-71
2021/03/19 10:19:44;;;;;;;10.90;8.75;;;3.20;99.90;;;;;;5010075;28;20550;-71
2021/03/19 10:22:11;;;;;;;8.88;7.88;;;3.50;99.90;;;;;;5010428;28;20615;-71
2021/03/19 10:24:37;;;;;;;8.85;7.43;;;4.20;99.90;;;;;;5010605;28;20276;-71
2021/03/19 10:27:11;;;;;;;9.30;8.35;;;5.00;99.90;;;;;;5010849;28;20691;-71
2021/03/19 10:29:40;;;;;;;9.38;8.40;;;5.50;99.90;;;;;;5010316;28;20211;-71
2021/03/19 10:32:11;;;;;;;7.85;7.15;;;5.70;99.90;;;;;;5010089;28;20686;-71
2021/03/19 10:34:47;;;;;;;8.98;8.07;;;5.40;99.90;;;;;;5010437;28;20210;-71
2021/03/19 10:37:26;;;;;;;9.00;7.55;;;5.30;99.90;;;;;;5010263;28;20206;-71
2021/03/19 10:39:57;;;;;;;8.50;7.03;;;5.10;99.90;;;;;;5010129;28;20214;-71
2021/03/19 10:42:28;;;;;;;6.75;6.05;;;4.90;99.90;;;;;;5009694;28;20590;-71
2021/03/19 10:45:14;;;;;;;8.15;7.00;;;4.90;99.90;;;;;;5010319;28;20206;-71
2021/03/19 10:47:47;;;;;;;7.20;6.47;;;4.70;99.90;;;;;;5010423;28;20225;-71
2021/03/19 10:50:16;;;;;;;10.82;7.63;;;4.60;99.90;;;;;;5009386;28;20213;-71
2021/03/19 10:52:48;;;;;;;9.13;7.70;;;4.30;99.90;;;;;;5010343;28;20591;-72
2021/03/19 10:55:23;;;;;;;9.10;8.15;;;4.30;99.90;;;;;;5009911;28;20206;-71
2021/03/19 10:57:55;;;;;;;8.60;7.40;;;4.30;99.90;;;;;;4978723;28;20211;-71
2021/03/19 11:00:33;;;;;;;9.30;7.50;;;4.30;99.90;;;;;;4972592;28;20287;-71
2021/03/19 11:03:01;;;;;;;7.90;7.10;;;4.40;99.90;;;;;;4990622;28;20203;-71
2021/03/19 11:05:28;;;;;;;6.45;5.63;;;4.40;99.90;;;;;;4990262;28;20294;-71
2021/03/19 11:07:55;;;;;;;6.07;5.47;;;4.50;99.90;;;;;;4990219;28;20663;-71
2021/03/19 11:10:27;;;;;;;6.72;6.03;;;4.50;99.90;;;;;;4989363;28;20203;-71
2021/03/19 11:12:57;;;;;;;7.43;6.68;;;4.80;99.90;;;;;;4990514;28;20671;-71
2021/03/19 11:15:38;;;;;;;6.72;5.95;;;6.10;99.90;;;;;;4990072;28;20257;-71
2021/03/19 11:18:17;;;;;;;7.00;6.18;;;7.00;99.90;;;;;;4990492;28;20207;-71
2021/03/19 11:20:46;;;;;;;5.80;5.20;;;6.90;99.90;;;;;;4989956;28;20277;-71
2021/03/19 11:23:25;;;;;;;5.60;5.10;;;6.50;99.90;;;;;;4990111;28;20203;-71
2021/03/19 11:25:52;;;;;;;5.47;4.60;;;6.00;99.90;;;;;;4990323;28;20257;-71
2021/03/19 11:28:28;;;;;;;4.90;4.47;;;5.50;99.90;;;;;;4989844;28;20211;-71
2021/03/19 11:30:55;;;;;;;6.30;5.00;;;5.00;99.90;;;;;;4989573;28;20574;-71
2021/03/19 11:33:22;;;;;;;5.65;4.53;;;4.60;99.90;;;;;;4989854;28;20210;-70
2021/03/19 11:36:08;;;;;;;6.15;4.60;;;4.50;99.90;;;;;;4989898;28;20199;-71
2021/03/19 11:38:37;;;;;;;4.93;4.43;;;4.40;99.90;;;;;;4989450;28;20211;-70
2021/03/19 11:41:21;;;;;;;6.85;6.25;;;4.30;99.90;;;;;;4989965;28;20230;-71
2021/03/19 11:43:48;;;;;;;5.28;4.75;;;4.10;99.90;;;;;;4985601;28;20212;-71
2021/03/19 11:46:15;;;;;;;5.00;4.50;;;4.00;99.90;;;;;;4970277;28;20204;-71
2021/03/19 11:48:43;;;;;;;5.20;4.70;;;3.80;99.90;;;;;;4969884;28;20215;-71
2021/03/19 11:51:13;;;;;;;5.70;4.70;;;3.80;99.90;;;;;;4970131;28;20255;-71
2021/03/19 11:53:39;;;;;;;5.53;5.00;;;3.90;99.90;;;;;;4969908;28;20601;-70
2021/03/19 11:56:06;;;;;;;6.10;5.50;;;3.90;99.90;;;;;;4970233;28;20678;-71
2021/03/19 11:58:33;;;;;;;7.40;4.90;;;4.10;99.90;;;;;;4969613;28;20208;-72
2021/03/19 12:01:00;;;;;;;5.63;4.82;;;4.30;99.90;;;;;;4970115;28;20242;-72
2021/03/19 12:03:37;;;;;;;6.18;5.20;;;4.50;99.90;;;;;;4969884;28;20208;-72
2021/03/19 12:06:05;;;;;;;5.35;4.85;;;4.90;99.90;;;;;;4969877;28;20302;-72
2021/03/19 12:08:33;;;;;;;4.93;4.38;;;5.20;99.90;;;;;;4970055;28;20559;-72
2021/03/19 12:11:00;;;;;;;5.25;4.70;;;5.70;99.90;;;;;;4969883;28;20270;-72
2021/03/19 12:13:28;;;;;;;8.27;6.65;;;5.70;99.90;;;;;;4969697;28;20226;-71
2021/03/19 12:15:54;;;;;;;7.22;5.68;;;5.50;99.90;;;;;;4970061;28;20239;-71
2021/03/19 12:18:22;;;;;;;6.60;5.68;;;5.00;99.90;;;;;;4969829;28;20257;-71
2021/03/19 12:20:50;;;;;;;7.43;6.03;;;4.80;99.90;;;;;;4969365;28;20255;-72
2021/03/19 12:23:16;;;;;;;7.10;6.10;;;4.50;99.90;;;;;;4969471;28;20298;-71
2021/03/19 12:25:43;;;;;;;8.65;6.70;;;4.30;99.90;;;;;;4969958;28;20208;-72
2021/03/19 12:28:12;;;;;;;7.50;5.55;;;4.30;99.90;;;;;;4979046;28;20218;-71
2021/03/19 12:30:39;;;;;;;6.40;5.28;;;4.30;99.90;;;;;;4984162;28;20217;-71
2021/03/19 12:33:06;;;;;;;8.82;6.95;;;4.10;99.90;;;;;;4977677;28;20204;-72
2021/03/19 12:35:32;;;;;;;6.80;5.80;;;3.90;99.90;;;;;;4988333;28;20217;-71
2021/03/19 12:38:00;;;;;;;7.47;6.30;;;3.70;99.90;;;;;;4985768;28;20299;-71
2021/03/19 12:40:28;;;;;;;6.70;5.70;;;3.60;99.90;;;;;;4987249;28;20610;-71
2021/03/19 12:42:57;;;;;;;7.45;6.43;;;3.50;99.90;;;;;;4988590;28;20233;-71
2021/03/19 12:45:25;;;;;;;8.02;6.70;;;3.50;99.90;;;;;;4988403;28;20294;-72
2021/03/19 12:47:52;;;;;;;9.80;7.60;;;3.40;99.90;;;;;;4988274;28;20330;-70
2021/03/19 12:50:20;;;;;;;13.55;8.10;;;3.50;99.90;;;;;;4988042;28;20199;-70
2021/03/19 12:52:47;;;;;;;22.65;11.32;;;3.40;99.90;;;;;;4988722;28;20203;-70
2021/03/19 12:55:15;;;;;;;19.10;9.60;;;3.40;99.90;;;;;;4988164;28;20323;-70
2021/03/19 12:57:41;;;;;;;15.95;8.82;;;3.30;99.90;;;;;;4992460;28;20295;-70
2021/03/19 13:00:09;;;;;;;14.50;9.60;;;3.30;99.90;;;;;;4992032;28;20214;-71
2021/03/19 13:02:36;;;;;;;13.15;9.02;;;3.20;99.90;;;;;;4992105;28;20231;-71
2021/03/19 13:05:02;;;;;;;13.60;8.65;;;3.10;99.90;;;;;;4992303;28;20691;-71
2021/03/19 13:07:29;;;;;;;19.27;11.02;;;3.00;99.90;;;;;;4973490;28;20207;-71
2021/03/19 13:09:56;;;;;;;13.18;9.25;;;3.00;99.90;;;;;;4972214;28;20200;-71
2021/03/19 13:12:23;;;;;;;13.68;9.02;;;2.90;99.90;;;;;;4972828;28;20765;-73
2021/03/19 13:14:49;;;;;;;14.13;9.95;;;2.90;99.90;;;;;;4972910;28;20210;-71
2021/03/19 13:17:15;;;;;;;10.98;8.73;;;2.80;99.90;;;;;;4972216;28;20200;-71
2021/03/19 13:19:41;;;;;;;15.50;9.60;;;2.70;99.90;;;;;;4970079;28;20664;-71
2021/03/19 13:22:08;;;;;;;13.48;9.93;;;2.50;99.90;;;;;;4971523;28;20699;-71
2021/03/19 13:24:34;;;;;;;15.15;10.43;;;2.50;99.90;;;;;;4972518;28;20214;-71
2021/03/19 13:27:00;;;;;;;13.48;10.13;;;2.50;99.90;;;;;;4972845;28;20211;-71